createdAt,value
2024-01-15T00:00:58.664Z,29.05
2024-01-15T00:01:58.468Z,29.02
2024-01-15T00:02:58.557Z,29.04
2024-01-15T00:03:58.604Z,29.04
2024-01-15T00:04:58.621Z,29.02
2024-01-15T00:05:58.598Z,29.02
2024-01-15T00:06:58.753Z,29.03
2024-01-15T00:07:58.646Z,29.04
2024-01-15T00:08:58.675Z,29.03
2024-01-15T00:09:58.738Z,29.05
2024-01-15T00:10:58.778Z,29.04
2024-01-15T00:11:58.821Z,29.05
2024-01-15T00:12:58.849Z,29.03
2024-01-15T00:13:58.898Z,29.03
2024-01-15T00:14:58.957Z,29.04
2024-01-15T00:15:59.077Z,29.04
2024-01-15T00:16:59.018Z,29.05
2024-01-15T00:17:59.070Z,29.05
2024-01-15T00:18:59.194Z,29.05
2024-01-15T00:19:59.131Z,29.05
2024-01-15T00:20:59.157Z,29.07
2024-01-15T00:21:59.197Z,29.06
2024-01-15T00:22:59.237Z,29.04
2024-01-15T00:23:59.264Z,29.05
2024-01-15T00:24:59.336Z,29.03
2024-01-15T00:25:59.386Z,29.04
2024-01-15T00:26:59.443Z,29.06
2024-01-15T00:27:59.531Z,29.05
2024-01-15T00:28:59.572Z,29.04
2024-01-15T00:29:59.629Z,29.05
2024-01-15T00:30:59.748Z,29.05
2024-01-15T00:31:59.773Z,29.07
2024-01-15T00:32:59.899Z,29.05
2024-01-15T00:34:00.231Z,29.06
2024-01-15T00:34:59.954Z,29.03
2024-01-15T00:36:00.044Z,29.06
2024-01-15T00:37:00.102Z,29.06
2024-01-15T00:38:00.182Z,29.06
2024-01-15T00:39:00.227Z,29.05
2024-01-15T00:40:00.283Z,29.06
2024-01-15T00:41:00.313Z,29.05
2024-01-15T00:42:00.366Z,29.06
2024-01-15T00:43:00.417Z,29.05
2024-01-15T00:44:00.453Z,29.06
2024-01-15T00:45:00.490Z,29.08
2024-01-15T00:46:00.567Z,29.03
2024-01-15T00:47:00.626Z,29.06
2024-01-15T00:48:00.747Z,29.05
2024-01-15T00:49:00.849Z,29.05
2024-01-15T00:50:00.739Z,29.04
2024-01-15T00:51:00.803Z,29.05
2024-01-15T00:52:00.853Z,29.05
2024-01-15T00:53:00.906Z,29.06
2024-01-15T00:54:00.928Z,29.05
2024-01-15T00:55:00.967Z,29.06
2024-01-15T00:56:01.012Z,29.06
2024-01-15T00:57:01.049Z,29.07
2024-01-15T00:58:01.073Z,29.05
2024-01-15T00:59:01.087Z,29.07
2024-01-15T01:00:02.957Z,29.05
2024-01-15T01:01:01.181Z,29.06
2024-01-15T01:02:01.130Z,29.06
2024-01-15T01:03:01.235Z,29.06
2024-01-15T01:04:01.301Z,29.06
2024-01-15T01:05:01.177Z,29.05
2024-01-15T01:06:01.185Z,29.07
2024-01-15T01:07:01.224Z,29.06
2024-01-15T01:08:01.178Z,29.06
2024-01-15T01:09:01.185Z,29.08
2024-01-15T01:10:01.201Z,29.07
2024-01-15T01:11:01.214Z,29.08
2024-01-15T01:12:01.224Z,29.05
2024-01-15T01:13:01.246Z,29.05
2024-01-15T01:14:01.242Z,29.07
2024-01-15T01:15:01.266Z,29.07
2024-01-15T01:16:01.298Z,29.08
2024-01-15T01:17:01.287Z,29.07
2024-01-15T01:18:01.429Z,29.07
2024-01-15T01:19:01.470Z,29.05
2024-01-15T01:20:01.577Z,29.06
2024-01-15T01:21:01.358Z,29.06
2024-01-15T01:22:01.352Z,29.09
2024-01-15T01:23:01.352Z,29.09
2024-01-15T01:24:01.377Z,29.09
2024-01-15T01:25:01.383Z,29.08
2024-01-15T01:26:01.385Z,29.10
2024-01-15T01:27:01.397Z,29.09
2024-01-15T01:28:01.401Z,29.08
2024-01-15T01:29:01.422Z,29.08
2024-01-15T01:30:01.437Z,29.09
2024-01-15T01:31:01.534Z,29.09
2024-01-15T01:32:01.458Z,29.10
2024-01-15T01:33:01.499Z,29.08
2024-01-15T01:34:01.603Z,29.08
2024-01-15T01:35:01.533Z,29.09
2024-01-15T01:36:01.503Z,29.10
2024-01-15T01:37:01.521Z,29.09
2024-01-15T01:38:01.512Z,29.10
2024-01-15T01:39:01.538Z,29.07
2024-01-15T01:40:01.605Z,29.09
2024-01-15T01:41:01.551Z,29.09
2024-01-15T01:42:01.542Z,29.10
2024-01-15T01:43:01.560Z,29.10
2024-01-15T01:44:01.575Z,29.09
2024-01-15T01:45:01.658Z,29.08
2024-01-15T01:46:01.773Z,29.09
2024-01-15T01:47:01.602Z,29.07
2024-01-15T01:48:01.741Z,29.09
2024-01-15T01:49:01.767Z,29.09
2024-01-15T01:50:01.629Z,29.09
2024-01-15T01:51:01.621Z,29.08
2024-01-15T01:52:01.625Z,29.10
2024-01-15T01:53:01.639Z,29.10
2024-01-15T01:54:01.655Z,29.10
2024-01-15T01:55:01.658Z,29.09
2024-01-15T01:56:01.664Z,29.10
2024-01-15T01:57:01.679Z,29.10
2024-01-15T01:58:01.685Z,29.11
2024-01-15T01:59:01.687Z,29.09
2024-01-15T02:00:01.714Z,29.09
2024-01-15T02:01:01.985Z,29.11
2024-01-15T02:02:01.711Z,29.09
2024-01-15T02:03:01.718Z,29.08
2024-01-15T02:04:01.906Z,29.09
2024-01-15T02:05:01.804Z,29.10
2024-01-15T02:06:02.064Z,29.10
2024-01-15T02:07:01.860Z,29.11
2024-01-15T02:08:01.784Z,29.08
2024-01-15T02:09:01.814Z,29.12
2024-01-15T02:10:01.829Z,29.11
2024-01-15T02:11:01.806Z,29.14
2024-01-15T02:12:01.820Z,29.12
2024-01-15T02:13:01.844Z,29.11
2024-01-15T02:14:01.844Z,29.09
2024-01-15T02:15:01.856Z,29.10
2024-01-15T02:16:01.869Z,29.09
2024-01-15T02:17:01.889Z,29.10
2024-01-15T02:18:02.105Z,29.10
2024-01-15T02:19:01.982Z,29.10
2024-01-15T02:20:01.976Z,29.11
2024-01-15T02:21:01.934Z,29.10
2024-01-15T02:22:01.944Z,29.09
2024-01-15T02:23:01.974Z,29.10
2024-01-15T02:24:01.987Z,29.11
2024-01-15T02:25:01.974Z,29.11
2024-01-15T02:26:01.990Z,29.12
2024-01-15T02:27:02.000Z,29.13
2024-01-15T02:28:02.018Z,29.10
2024-01-15T02:29:02.031Z,29.10
2024-01-15T02:30:02.045Z,29.11
2024-01-15T02:31:02.153Z,29.09
2024-01-15T02:32:02.077Z,29.10
2024-01-15T02:33:02.169Z,29.07
2024-01-15T02:34:02.216Z,29.10
2024-01-15T02:35:02.205Z,29.11
2024-01-15T02:36:02.132Z,29.11
2024-01-15T02:37:02.151Z,29.09
2024-01-15T02:38:02.157Z,29.11
2024-01-15T02:39:02.173Z,29.11
2024-01-15T02:40:02.195Z,29.12
2024-01-15T02:41:02.209Z,29.13
2024-01-15T02:42:02.217Z,29.12
2024-01-15T02:43:02.234Z,29.12
2024-01-15T02:44:02.252Z,29.10
2024-01-15T02:45:02.293Z,29.14
2024-01-15T02:46:02.299Z,29.14
2024-01-15T02:47:02.324Z,29.11
2024-01-15T02:48:02.387Z,29.12
2024-01-15T02:49:02.418Z,29.14
2024-01-15T02:50:02.444Z,29.11
2024-01-15T02:51:02.376Z,29.15
2024-01-15T02:52:02.396Z,29.13
2024-01-15T02:53:02.411Z,29.12
2024-01-15T02:54:02.418Z,29.14
2024-01-15T02:55:02.475Z,29.10
2024-01-15T02:56:02.499Z,29.11
2024-01-15T02:57:02.480Z,29.10
2024-01-15T02:58:02.512Z,29.12
2024-01-15T02:59:02.519Z,29.11
2024-01-15T03:00:02.538Z,29.14
2024-01-15T03:01:02.784Z,29.14
2024-01-15T03:02:02.567Z,29.12
2024-01-15T03:03:02.604Z,29.13
2024-01-15T03:04:02.713Z,29.12
2024-01-15T03:05:02.678Z,29.11
2024-01-15T03:06:02.657Z,29.14
2024-01-15T03:07:02.669Z,29.14
2024-01-15T03:08:02.669Z,29.13
2024-01-15T03:09:02.683Z,29.13
2024-01-15T03:10:02.751Z,29.15
2024-01-15T03:11:02.824Z,29.16
2024-01-15T03:12:02.875Z,29.15
2024-01-15T03:13:02.938Z,29.15
2024-01-15T03:14:02.990Z,29.14
2024-01-15T03:15:03.048Z,29.14
2024-01-15T03:16:03.112Z,29.14
2024-01-15T03:17:03.151Z,29.16
2024-01-15T03:18:03.210Z,29.13
2024-01-15T03:19:03.295Z,29.15
2024-01-15T03:20:03.276Z,29.15
2024-01-15T03:21:03.264Z,29.15
2024-01-15T03:22:03.296Z,29.16
2024-01-15T03:23:03.325Z,29.16
2024-01-15T03:24:03.368Z,29.16
2024-01-15T03:25:03.407Z,29.14
2024-01-15T03:26:03.415Z,29.18
2024-01-15T03:27:03.471Z,29.17
2024-01-15T03:28:03.483Z,29.17
2024-01-15T03:29:03.534Z,29.15
2024-01-15T03:30:03.624Z,29.13
2024-01-15T03:31:03.792Z,29.16
2024-01-15T03:32:03.756Z,29.14
2024-01-15T03:33:03.856Z,29.15
2024-01-15T03:34:03.971Z,29.16
2024-01-15T03:35:04.173Z,29.11
2024-01-15T03:36:04.038Z,29.12
2024-01-15T03:37:04.126Z,29.13
2024-01-15T03:38:04.225Z,29.14
2024-01-15T03:39:04.285Z,29.14
2024-01-15T03:40:04.491Z,29.13
2024-01-15T03:41:04.459Z,29.13
2024-01-15T03:42:04.563Z,29.14
2024-01-15T03:43:04.611Z,29.12
2024-01-15T03:44:04.693Z,29.12
2024-01-15T03:45:04.776Z,29.11
2024-01-15T03:46:04.851Z,29.10
2024-01-15T03:47:04.915Z,29.14
2024-01-15T03:48:05.198Z,29.12
2024-01-15T03:49:05.170Z,29.10
2024-01-15T03:50:05.127Z,29.14
2024-01-15T03:51:05.311Z,29.10
2024-01-15T03:52:05.265Z,29.10
2024-01-15T03:53:05.332Z,29.11
2024-01-15T03:54:05.437Z,29.13
2024-01-15T03:55:05.587Z,29.13
2024-01-15T03:56:05.529Z,29.11
2024-01-15T03:57:05.619Z,29.12
2024-01-15T03:58:05.638Z,29.11
2024-01-15T03:59:05.690Z,29.11
2024-01-15T04:00:05.780Z,29.13
2024-01-15T04:01:05.885Z,29.10
2024-01-15T04:02:05.869Z,29.10
2024-01-15T04:03:05.962Z,29.12
2024-01-15T04:04:06.085Z,29.10
2024-01-15T04:05:06.027Z,29.11
2024-01-15T04:06:06.243Z,29.12
2024-01-15T04:07:06.212Z,29.12
2024-01-15T04:08:06.194Z,29.11
2024-01-15T04:09:06.279Z,29.12
2024-01-15T04:10:06.307Z,29.13
2024-01-15T04:11:06.364Z,29.11
2024-01-15T04:12:06.454Z,29.11
2024-01-15T04:13:06.481Z,29.10
2024-01-15T04:14:06.520Z,29.10
2024-01-15T04:15:06.602Z,29.10
2024-01-15T04:16:06.628Z,29.10
2024-01-15T04:17:06.688Z,29.10
2024-01-15T04:18:06.836Z,29.10
2024-01-15T04:19:06.979Z,29.09
2024-01-15T04:20:06.833Z,29.10
2024-01-15T04:21:06.910Z,29.10
2024-01-15T04:22:06.964Z,29.08
2024-01-15T04:23:06.981Z,29.09
2024-01-15T04:24:07.046Z,29.09
2024-01-15T04:25:07.081Z,29.10
2024-01-15T04:26:07.122Z,29.11
2024-01-15T04:27:07.179Z,29.09
2024-01-15T04:28:07.239Z,29.09
2024-01-15T04:29:07.311Z,29.09
2024-01-15T04:30:07.400Z,29.09
2024-01-15T04:31:07.518Z,29.09
2024-01-15T04:32:07.524Z,29.08
2024-01-15T04:33:07.671Z,29.08
2024-01-15T04:34:07.688Z,29.09
2024-01-15T04:35:07.641Z,29.10
2024-01-15T04:36:07.763Z,29.08
2024-01-15T04:37:07.785Z,29.10
2024-01-15T04:38:07.775Z,29.09
2024-01-15T04:39:07.869Z,29.09
2024-01-15T04:40:07.883Z,29.09
2024-01-15T04:41:07.929Z,29.08
2024-01-15T04:42:08.051Z,29.09
2024-01-15T04:43:08.038Z,29.06
2024-01-15T04:44:08.086Z,29.07
2024-01-15T04:45:08.155Z,29.09
2024-01-15T04:46:08.191Z,29.09
2024-01-15T04:47:08.240Z,29.09
2024-01-15T04:48:08.367Z,29.07
2024-01-15T04:49:08.383Z,29.08
2024-01-15T04:50:08.381Z,29.08
2024-01-15T04:51:08.462Z,29.07
2024-01-15T04:52:08.481Z,29.05
2024-01-15T04:53:11.857Z,29.06
2024-01-15T04:54:08.572Z,29.07
2024-01-15T04:55:08.544Z,29.05
2024-01-15T04:56:08.551Z,29.06
2024-01-15T04:57:08.574Z,29.05
2024-01-15T04:58:15.901Z,29.09
2024-01-15T04:59:15.921Z,29.08
2024-01-15T05:00:16.022Z,29.07
2024-01-15T05:01:16.044Z,29.07
2024-01-15T05:02:15.913Z,29.06
2024-01-15T05:03:15.985Z,29.07
2024-01-15T05:04:16.070Z,29.06
2024-01-15T05:05:15.951Z,29.09
2024-01-15T05:06:16.034Z,29.08
2024-01-15T05:07:15.957Z,29.05
2024-01-15T05:08:15.967Z,29.06
2024-01-15T05:09:15.981Z,29.06
2024-01-15T05:10:15.982Z,29.06
2024-01-15T05:11:15.985Z,29.08
2024-01-15T05:12:16.040Z,29.05
2024-01-15T05:13:16.037Z,29.04
2024-01-15T05:14:16.045Z,29.07
2024-01-15T05:15:16.078Z,29.05
2024-01-15T05:16:16.117Z,29.05
2024-01-15T05:17:16.086Z,29.06
2024-01-15T05:18:16.226Z,29.06
2024-01-15T05:19:16.205Z,29.07
2024-01-15T05:20:16.381Z,29.07
2024-01-15T05:21:16.187Z,29.08
2024-01-15T05:22:16.138Z,29.06
2024-01-15T05:23:16.154Z,29.06
2024-01-15T05:24:16.193Z,29.06
2024-01-15T05:25:16.172Z,29.07
2024-01-15T05:26:16.188Z,29.06
2024-01-15T05:27:16.214Z,29.07
2024-01-15T05:28:16.203Z,29.07
2024-01-15T05:29:16.214Z,29.08
2024-01-15T05:30:16.315Z,29.06
2024-01-15T05:31:16.294Z,29.08
2024-01-15T05:32:16.243Z,29.05
2024-01-15T05:33:16.368Z,29.06
2024-01-15T05:34:16.309Z,29.07
2024-01-15T05:35:16.276Z,29.06
2024-01-15T05:36:16.327Z,29.06
2024-01-15T05:37:16.314Z,29.04
2024-01-15T05:38:16.311Z,29.07
2024-01-15T05:39:16.377Z,29.08
2024-01-15T05:40:16.330Z,29.07
2024-01-15T05:41:16.349Z,29.06
2024-01-15T05:42:16.409Z,29.06
2024-01-15T05:43:16.388Z,29.07
2024-01-15T05:44:16.376Z,29.07
2024-01-15T05:45:16.409Z,29.05
2024-01-15T05:46:16.395Z,29.08
2024-01-15T05:47:16.401Z,29.05
2024-01-15T05:48:16.499Z,29.07
2024-01-15T05:49:16.570Z,29.09
2024-01-15T05:50:16.441Z,29.05
2024-01-15T05:51:16.454Z,29.05
2024-01-15T05:52:16.457Z,29.04
2024-01-15T05:53:16.452Z,29.07
2024-01-15T05:54:16.501Z,29.07
2024-01-15T05:55:16.480Z,29.04
2024-01-15T05:56:16.481Z,29.04
2024-01-15T05:57:16.512Z,29.06
2024-01-15T05:58:16.591Z,29.05
2024-01-15T05:59:16.511Z,29.05
2024-01-15T06:00:16.583Z,29.06
2024-01-15T06:01:16.620Z,29.05
2024-01-15T06:02:16.620Z,29.07
2024-01-15T06:03:16.603Z,29.06
2024-01-15T06:04:16.814Z,29.05
2024-01-15T06:05:16.630Z,29.07
2024-01-15T06:06:16.781Z,29.05
2024-01-15T06:07:16.685Z,29.06
2024-01-15T06:08:16.737Z,29.06
2024-01-15T06:09:16.871Z,29.05
2024-01-15T06:10:16.843Z,29.05
2024-01-15T06:11:16.897Z,29.05
2024-01-15T06:12:16.961Z,29.05
2024-01-15T06:13:16.995Z,29.06
2024-01-15T06:14:17.040Z,29.04
2024-01-15T06:15:17.115Z,29.05
2024-01-15T06:16:17.135Z,29.04
2024-01-15T06:17:17.182Z,29.06
2024-01-15T06:18:17.416Z,29.06
2024-01-15T06:19:17.394Z,29.03
2024-01-15T06:20:17.323Z,29.04
2024-01-15T06:21:17.514Z,29.04
2024-01-15T06:22:17.447Z,29.07
2024-01-15T06:23:20.629Z,29.10
2024-01-15T06:24:17.546Z,29.17
2024-01-15T06:25:17.504Z,29.25
2024-01-15T06:26:17.524Z,29.32
2024-01-15T06:27:17.588Z,29.67
2024-01-15T06:28:17.553Z,29.91
2024-01-15T06:29:17.568Z,30.61
2024-01-15T06:30:17.626Z,31.10
2024-01-15T06:31:17.697Z,31.06
2024-01-15T06:32:17.603Z,31.04
2024-01-15T06:33:17.737Z,31.05
2024-01-15T06:34:17.819Z,31.03
2024-01-15T06:35:21.012Z,31.03
2024-01-15T06:36:17.712Z,31.10
2024-01-15T06:37:17.654Z,31.12
2024-01-15T06:38:17.663Z,31.10
2024-01-15T06:39:17.686Z,31.09
2024-01-15T06:40:17.685Z,31.09
2024-01-15T06:41:17.692Z,31.07
2024-01-15T06:42:17.716Z,31.05
2024-01-15T06:43:17.722Z,31.02
2024-01-15T06:44:17.722Z,30.98
2024-01-15T06:45:17.742Z,30.97
2024-01-15T06:46:17.735Z,30.94
2024-01-15T06:47:17.742Z,30.93
2024-01-15T06:48:17.944Z,30.88
2024-01-15T06:49:17.870Z,30.86
2024-01-15T06:50:17.784Z,30.84
2024-01-15T06:51:17.908Z,30.84
2024-01-15T06:52:17.793Z,30.82
2024-01-15T06:53:17.817Z,30.77
2024-01-15T06:54:17.886Z,30.78
2024-01-15T06:55:17.845Z,30.75
2024-01-15T06:56:17.999Z,30.72
2024-01-15T06:57:17.971Z,30.71
2024-01-15T06:58:17.963Z,30.69
2024-01-15T06:59:20.239Z,30.67
2024-01-15T07:00:18.158Z,30.65
2024-01-15T07:01:18.364Z,30.65
2024-01-15T07:02:18.217Z,30.62
2024-01-15T07:03:18.388Z,30.60
2024-01-15T07:04:18.326Z,30.60
2024-01-15T07:05:18.350Z,30.56
2024-01-15T07:06:18.419Z,30.54
2024-01-15T07:07:18.393Z,30.53
2024-01-15T07:08:18.453Z,30.51
2024-01-15T07:09:18.510Z,30.47
2024-01-15T07:10:18.529Z,30.46
2024-01-15T07:11:18.601Z,30.44
2024-01-15T07:12:18.671Z,30.41
2024-01-15T07:13:18.651Z,30.41
2024-01-15T07:14:18.699Z,30.41
2024-01-15T07:15:18.848Z,30.38
2024-01-15T07:16:34.214Z,30.35
2024-01-15T07:17:19.802Z,30.36
2024-01-15T07:18:18.969Z,30.34
2024-01-15T07:19:18.977Z,30.31
2024-01-15T07:20:18.898Z,30.32
2024-01-15T07:21:18.980Z,30.31
2024-01-15T07:22:18.840Z,30.28
2024-01-15T07:23:18.897Z,30.29
2024-01-15T07:24:18.907Z,30.29
2024-01-15T07:25:18.887Z,30.65
2024-01-15T07:26:18.898Z,30.46
2024-01-15T07:27:18.931Z,30.77
2024-01-15T07:28:18.916Z,30.94
2024-01-15T07:29:18.953Z,31.23
2024-01-15T07:30:19.031Z,30.76
2024-01-15T07:31:19.019Z,29.32
2024-01-15T07:32:19.079Z,28.70
2024-01-15T07:33:19.172Z,28.67
2024-01-15T07:34:19.236Z,28.57
2024-01-15T07:35:19.167Z,28.91
2024-01-15T07:36:19.216Z,29.70
2024-01-15T07:37:19.201Z,29.87
2024-01-15T07:38:19.265Z,29.95
2024-01-15T07:39:19.384Z,30.06
2024-01-15T07:40:19.426Z,30.17
2024-01-15T07:41:19.497Z,30.33
2024-01-15T07:42:19.623Z,30.33
2024-01-15T07:43:19.640Z,30.35
2024-01-15T07:44:19.682Z,30.36
2024-01-15T07:45:19.825Z,30.47
2024-01-15T07:46:19.787Z,30.55
2024-01-15T07:47:19.850Z,30.69
2024-01-15T07:48:20.085Z,30.74
2024-01-15T07:49:20.034Z,30.82
2024-01-15T07:50:19.960Z,30.93
2024-01-15T07:51:20.011Z,31.01
2024-01-15T07:52:19.995Z,31.04
2024-01-15T07:53:20.051Z,31.07
2024-01-15T07:54:20.107Z,31.13
2024-01-15T07:55:20.162Z,31.22
2024-01-15T07:56:20.114Z,31.25
2024-01-15T07:57:20.187Z,31.29
2024-01-15T07:58:21.199Z,31.37
2024-01-15T07:59:20.167Z,31.40
2024-01-15T08:00:20.175Z,31.76
2024-01-15T08:01:20.258Z,31.81
2024-01-15T08:02:20.188Z,31.86
2024-01-15T08:03:20.266Z,31.89
2024-01-15T08:04:20.435Z,31.86
2024-01-15T08:05:20.211Z,31.86
2024-01-15T08:06:20.287Z,31.81
2024-01-15T08:07:20.299Z,31.94
2024-01-15T08:08:20.255Z,32.14
2024-01-15T08:09:20.278Z,32.00
2024-01-15T08:10:20.266Z,31.97
2024-01-15T08:11:20.279Z,32.19
2024-01-15T08:12:20.320Z,32.24
2024-01-15T08:13:20.338Z,32.30
2024-01-15T08:14:20.417Z,32.29
2024-01-15T08:15:20.502Z,32.19
2024-01-15T08:16:20.450Z,31.90
2024-01-15T08:17:20.541Z,31.59
2024-01-15T08:18:20.607Z,31.22
2024-01-15T08:19:20.697Z,31.01
2024-01-15T08:20:20.657Z,31.33
2024-01-15T08:21:20.609Z,30.79
2024-01-15T08:22:20.633Z,31.57
2024-01-15T08:23:20.652Z,31.73
2024-01-15T08:24:20.718Z,31.75
2024-01-15T08:25:20.773Z,31.74
2024-01-15T08:26:21.561Z,31.90
2024-01-15T08:27:20.901Z,32.10
2024-01-15T08:28:20.918Z,32.35
2024-01-15T08:29:20.924Z,32.50
2024-01-15T08:30:20.995Z,32.74
2024-01-15T08:31:21.023Z,33.02
2024-01-15T08:32:20.997Z,33.23
2024-01-15T08:33:22.300Z,33.39
2024-01-15T08:34:21.694Z,33.65
2024-01-15T08:35:21.595Z,33.81
2024-01-15T08:36:21.019Z,33.96
2024-01-15T08:37:22.010Z,34.18
2024-01-15T08:38:20.994Z,34.40
2024-01-15T08:39:21.049Z,34.67
2024-01-15T08:40:20.992Z,34.76
2024-01-15T08:41:20.999Z,34.88
2024-01-15T08:42:21.022Z,35.22
2024-01-15T08:43:20.985Z,35.43
2024-01-15T08:44:20.979Z,35.49
2024-01-15T08:45:21.020Z,35.79
2024-01-15T08:46:20.992Z,35.93
2024-01-15T08:47:21.059Z,36.16
2024-01-15T08:48:21.144Z,36.35
2024-01-15T08:49:21.277Z,36.68
2024-01-15T08:50:21.228Z,36.70
2024-01-15T08:51:21.314Z,36.70
2024-01-15T08:52:21.413Z,36.86
2024-01-15T08:53:21.402Z,37.08
2024-01-15T08:54:21.506Z,37.23
2024-01-15T08:55:21.522Z,37.42
2024-01-15T08:56:21.581Z,37.70
2024-01-15T08:57:21.673Z,37.78
2024-01-15T08:58:21.689Z,37.91
2024-01-15T08:59:21.738Z,38.14
2024-01-15T09:00:21.926Z,38.31
2024-01-15T09:01:21.951Z,38.66
2024-01-15T09:02:21.904Z,38.82
2024-01-15T09:03:22.014Z,38.84
2024-01-15T09:04:22.108Z,38.88
2024-01-15T09:05:22.101Z,39.09
2024-01-15T09:06:22.165Z,39.26
2024-01-15T09:07:22.123Z,39.49
2024-01-15T09:08:22.168Z,39.63
2024-01-15T09:09:22.440Z,39.92
2024-01-15T09:10:22.270Z,40.08
2024-01-15T09:11:22.272Z,40.30
2024-01-15T09:12:22.317Z,40.36
2024-01-15T09:13:22.345Z,40.69
2024-01-15T09:14:32.614Z,40.60
2024-01-15T09:15:23.382Z,40.93
2024-01-15T09:16:22.425Z,40.93
2024-01-15T09:17:22.360Z,40.98
2024-01-15T09:18:22.410Z,41.37
2024-01-15T09:19:22.425Z,41.31
2024-01-15T09:20:22.327Z,41.58
2024-01-15T09:21:22.334Z,41.32
2024-01-15T09:22:22.315Z,40.81
2024-01-15T09:23:22.314Z,40.77
2024-01-15T09:24:27.665Z,40.62
2024-01-15T09:25:23.301Z,39.89
2024-01-15T09:26:22.287Z,39.27
2024-01-15T09:27:22.338Z,38.61
2024-01-15T09:28:22.281Z,38.11
2024-01-15T09:29:22.303Z,37.72
2024-01-15T09:30:22.323Z,37.12
2024-01-15T09:31:22.474Z,36.76
2024-01-15T09:32:22.307Z,36.29
2024-01-15T09:33:22.402Z,35.79
2024-01-15T09:34:22.346Z,35.51
2024-01-15T09:35:24.343Z,35.32
2024-01-15T09:36:22.377Z,35.14
2024-01-15T09:37:32.192Z,34.85
2024-01-15T09:38:23.346Z,34.71
2024-01-15T09:39:22.356Z,34.41
2024-01-15T09:40:22.318Z,34.19
2024-01-15T09:41:22.315Z,33.99
2024-01-15T09:42:22.540Z,33.75
2024-01-15T09:43:22.313Z,33.61
2024-01-15T09:44:22.320Z,33.46
2024-01-15T09:45:22.323Z,33.29
2024-01-15T09:46:22.327Z,33.16
2024-01-15T09:47:22.311Z,32.97
2024-01-15T09:48:22.406Z,32.82
2024-01-15T09:49:22.503Z,32.72
2024-01-15T09:50:22.465Z,32.64
2024-01-15T09:51:22.379Z,32.43
2024-01-15T09:52:22.475Z,32.27
2024-01-15T09:53:22.415Z,32.18
2024-01-15T09:54:22.441Z,32.08
2024-01-15T09:55:22.442Z,31.93
2024-01-15T09:56:22.462Z,31.91
2024-01-15T09:57:22.515Z,31.78
2024-01-15T09:58:22.464Z,31.72
2024-01-15T09:59:22.461Z,31.59
2024-01-15T10:00:22.490Z,31.50
2024-01-15T10:01:22.647Z,31.39
2024-01-15T10:02:22.599Z,31.32
2024-01-15T10:03:22.720Z,31.25
2024-01-15T10:04:22.738Z,31.15
2024-01-15T10:05:22.594Z,31.05
2024-01-15T10:06:23.240Z,31.02
2024-01-15T10:07:22.676Z,30.95
2024-01-15T10:08:22.663Z,30.87
2024-01-15T10:09:22.755Z,30.78
2024-01-15T10:10:22.742Z,30.74
2024-01-15T10:11:23.748Z,30.77
2024-01-15T10:12:22.802Z,30.75
2024-01-15T10:13:22.756Z,30.66
2024-01-15T10:14:22.749Z,30.74
2024-01-15T10:15:22.755Z,30.80
2024-01-15T10:16:22.763Z,30.77
2024-01-15T10:17:22.763Z,30.74
2024-01-15T10:18:22.835Z,30.73
2024-01-15T10:19:22.875Z,30.75
2024-01-15T10:20:22.802Z,30.77
2024-01-15T10:21:22.858Z,30.79
2024-01-15T10:22:22.820Z,30.86
2024-01-15T10:23:22.868Z,30.88
2024-01-15T10:24:22.969Z,30.89
2024-01-15T10:25:23.604Z,30.90
2024-01-15T10:26:24.098Z,30.86
2024-01-15T10:27:24.211Z,30.85
2024-01-15T10:28:23.181Z,30.83
2024-01-15T10:29:23.233Z,30.82
2024-01-15T10:30:24.296Z,30.85
2024-01-15T10:31:26.185Z,30.82
2024-01-15T10:32:23.285Z,30.86
2024-01-15T10:33:23.385Z,30.86
2024-01-15T10:34:24.224Z,30.85
2024-01-15T10:35:23.239Z,30.85
2024-01-15T10:36:23.257Z,30.87
2024-01-15T10:37:25.217Z,30.83
2024-01-15T10:38:23.235Z,30.86
2024-01-15T10:39:23.221Z,30.85
2024-01-15T10:40:23.179Z,30.87
2024-01-15T10:41:23.172Z,30.87
2024-01-15T10:42:23.200Z,30.88
2024-01-15T10:43:25.135Z,30.87
2024-01-15T10:44:23.159Z,30.91
2024-01-15T10:45:23.232Z,30.88
2024-01-15T10:46:23.153Z,30.87
2024-01-15T10:47:23.183Z,30.86
2024-01-15T10:48:23.236Z,30.85
2024-01-15T10:49:23.241Z,30.84
2024-01-15T10:50:23.146Z,30.86
2024-01-15T10:51:23.230Z,30.84
2024-01-15T10:52:23.130Z,30.85
2024-01-15T10:53:23.121Z,30.85
2024-01-15T10:54:23.155Z,30.86
2024-01-15T10:55:23.132Z,30.85
2024-01-15T10:56:23.123Z,30.85
2024-01-15T10:57:23.173Z,30.87
2024-01-15T10:58:23.117Z,30.84
2024-01-15T10:59:23.104Z,30.86
2024-01-15T11:00:23.135Z,30.85
2024-01-15T11:01:24.951Z,30.85
2024-01-15T11:02:23.118Z,30.85
2024-01-15T11:03:23.192Z,30.84
2024-01-15T11:04:24.300Z,30.84
2024-01-15T11:05:23.125Z,30.86
2024-01-15T11:06:23.218Z,30.85
2024-01-15T11:07:24.893Z,30.86
2024-01-15T11:08:23.081Z,30.85
2024-01-15T11:09:23.092Z,30.86
2024-01-15T11:10:23.071Z,30.87
2024-01-15T11:11:23.062Z,30.85
2024-01-15T11:12:23.109Z,30.87
2024-01-15T11:13:25.474Z,30.87
2024-01-15T11:14:23.049Z,30.89
2024-01-15T11:15:23.123Z,30.87
2024-01-15T11:16:23.025Z,30.84
2024-01-15T11:17:23.053Z,30.84
2024-01-15T11:18:23.113Z,30.82
2024-01-15T11:19:23.099Z,30.79
2024-01-15T11:20:22.998Z,30.77
2024-01-15T11:21:23.188Z,30.75
2024-01-15T11:22:22.989Z,30.75
2024-01-15T11:23:22.984Z,30.71
2024-01-15T11:24:23.038Z,30.76
2024-01-15T11:25:23.008Z,30.74
2024-01-15T11:26:23.633Z,30.73
2024-01-15T11:27:22.979Z,30.71
2024-01-15T11:28:22.960Z,30.72
2024-01-15T11:29:24.419Z,30.73
2024-01-15T11:30:23.051Z,30.72
2024-01-15T11:31:23.003Z,30.74
2024-01-15T11:32:22.947Z,30.73
2024-01-15T11:33:23.016Z,30.74
2024-01-15T11:34:24.005Z,30.75
2024-01-15T11:35:24.363Z,30.73
2024-01-15T11:36:22.965Z,30.73
2024-01-15T11:37:22.930Z,30.73
2024-01-15T11:38:22.916Z,30.73
2024-01-15T11:39:22.959Z,30.74
2024-01-15T11:40:22.916Z,30.72
2024-01-15T11:41:25.111Z,30.72
2024-01-15T11:42:22.962Z,30.73
2024-01-15T11:43:22.946Z,30.69
2024-01-15T11:44:22.905Z,30.69
2024-01-15T11:45:23.314Z,30.69
2024-01-15T11:46:22.909Z,30.69
2024-01-15T11:47:22.964Z,30.69
2024-01-15T11:48:22.948Z,30.71
2024-01-15T11:49:22.993Z,30.68
2024-01-15T11:50:22.900Z,30.70
2024-01-15T11:51:22.907Z,30.71
2024-01-15T11:52:22.890Z,30.68
2024-01-15T11:53:22.925Z,30.71
2024-01-15T11:54:22.900Z,30.70
2024-01-15T11:55:22.868Z,30.70
2024-01-15T11:56:22.840Z,30.72
2024-01-15T11:57:22.864Z,30.70
2024-01-15T11:58:22.843Z,30.71
2024-01-15T11:59:22.826Z,30.69
2024-01-15T12:00:22.916Z,30.70
2024-01-15T12:01:22.915Z,30.71
2024-01-15T12:02:22.827Z,30.70
2024-01-15T12:03:22.837Z,30.73
2024-01-15T12:04:22.928Z,30.72
2024-01-15T12:05:22.922Z,30.70
2024-01-15T12:06:22.898Z,30.70
2024-01-15T12:07:22.862Z,30.72
2024-01-15T12:08:22.814Z,30.72
2024-01-15T12:09:22.861Z,30.93
2024-01-15T12:10:22.857Z,31.67
2024-01-15T12:11:22.826Z,32.80
2024-01-15T12:12:22.855Z,34.27
2024-01-15T12:13:22.857Z,33.90
2024-01-15T12:14:22.890Z,33.77
2024-01-15T12:15:22.888Z,33.19
2024-01-15T12:16:22.867Z,32.63
2024-01-15T12:17:22.863Z,32.44
2024-01-15T12:18:23.048Z,32.35
2024-01-15T12:19:22.947Z,32.32
2024-01-15T12:20:22.857Z,32.43
2024-01-15T12:21:22.879Z,32.56
2024-01-15T12:22:22.892Z,32.86
2024-01-15T12:23:22.857Z,33.21
2024-01-15T12:24:22.955Z,33.22
2024-01-15T12:25:22.865Z,33.16
2024-01-15T12:26:22.863Z,33.32
2024-01-15T12:27:22.899Z,33.45
2024-01-15T12:28:22.940Z,33.57
2024-01-15T12:29:22.901Z,33.76
2024-01-15T12:30:22.988Z,33.85
2024-01-15T12:31:22.961Z,34.02
2024-01-15T12:32:22.901Z,34.06
2024-01-15T12:33:23.181Z,34.12
2024-01-15T12:34:23.001Z,34.16
2024-01-15T12:35:22.951Z,34.20
2024-01-15T12:36:23.054Z,34.25
2024-01-15T12:37:23.026Z,34.26
2024-01-15T12:38:23.054Z,34.24
2024-01-15T12:39:23.120Z,34.24
2024-01-15T12:40:23.120Z,34.27
2024-01-15T12:41:23.150Z,34.24
2024-01-15T12:42:23.238Z,34.22
2024-01-15T12:43:23.213Z,34.21
2024-01-15T12:44:23.267Z,34.19
2024-01-15T12:45:23.331Z,34.19
2024-01-15T12:46:23.351Z,34.16
2024-01-15T12:47:23.407Z,34.16
2024-01-15T12:48:23.533Z,34.12
2024-01-15T12:49:23.486Z,34.12
2024-01-15T12:50:23.433Z,34.10
2024-01-15T12:51:23.502Z,34.11
2024-01-15T12:52:23.491Z,34.07
2024-01-15T12:53:24.172Z,34.09